Time;durP1;ratioP1;P1;durP2;ratioP2;P2;SDS_P1;SDS_P2;PMS_P1;PMS_P2;Temp;Humidity;BMP_temperature;BMP_pressure;BME280_temperature;BME280_humidity;BME280_pressure;Samples;Min_cycle;Max_cycle;Signal;HPM_P1;HPM_P2
2023/10/23 00:01:38;;;;;;;0.65;0.50;;;19.60;72.20;;;;;;5043953;28;20116;-82
2023/10/23 00:04:04;;;;;;;0.55;0.50;;;19.60;72.20;;;;;;5061279;28;20505;-82
2023/10/23 00:06:29;;;;;;;0.80;0.60;;;19.60;72.10;;;;;;5077360;28;20044;-81
2023/10/23 00:08:55;;;;;;;0.45;0.40;;;19.60;72.10;;;;;;5065261;28;20047;-81
2023/10/23 00:11:22;;;;;;;0.60;0.60;;;19.60;72.10;;;;;;5062746;28;20029;-82
2023/10/23 00:13:47;;;;;;;0.40;0.40;;;19.60;72.20;;;;;;5094551;28;20048;-82
2023/10/23 00:16:13;;;;;;;0.40;0.30;;;19.60;72.10;;;;;;5029356;28;20028;-82
2023/10/23 00:18:39;;;;;;;1.65;0.75;;;19.60;72.10;;;;;;5045590;28;20125;-82
2023/10/23 00:21:04;;;;;;;0.80;0.40;;;19.50;72.10;;;;;;5093872;28;20061;-81
2023/10/23 00:23:30;;;;;;;0.52;0.50;;;19.60;72.20;;;;;;5062737;28;20792;-82
2023/10/23 00:25:55;;;;;;;0.60;0.52;;;19.60;72.10;;;;;;5061222;28;20065;-82
2023/10/23 00:28:21;;;;;;;0.50;0.50;;;19.50;72.10;;;;;;5061915;28;20550;-82
2023/10/23 00:30:46;;;;;;;0.60;0.50;;;19.50;72.10;;;;;;5061540;28;20033;-82
2023/10/23 00:33:12;;;;;;;0.38;0.30;;;19.50;72.10;;;;;;5095819;28;20051;-82
2023/10/23 00:35:37;;;;;;;0.40;0.40;;;19.50;72.10;;;;;;5061384;28;20050;-82
2023/10/23 00:38:03;;;;;;;0.32;0.30;;;19.60;72.10;;;;;;5079213;28;20044;-82
2023/10/23 00:40:30;;;;;;;0.40;0.40;;;19.50;72.10;;;;;;5046986;28;20040;-82
2023/10/23 00:42:56;;;;;;;0.50;0.50;;;19.50;72.10;;;;;;5062314;28;20041;-81
2023/10/23 00:45:21;;;;;;;0.57;0.50;;;19.50;72.00;;;;;;5061828;28;20043;-82
2023/10/23 00:47:47;;;;;;;0.30;0.20;;;19.50;72.00;;;;;;5062787;28;20040;-82
2023/10/23 00:50:13;;;;;;;0.57;0.43;;;19.50;72.00;;;;;;5086059;28;20052;-82
2023/10/23 00:52:38;;;;;;;0.30;0.30;;;19.50;72.00;;;;;;5029374;28;20095;-81
2023/10/23 00:55:04;;;;;;;0.60;0.35;;;19.50;72.80;;;;;;5045516;28;20410;-82
2023/10/23 00:57:30;;;;;;;0.40;0.40;;;19.50;72.00;;;;;;5046956;28;20059;-82
2023/10/23 00:59:56;;;;;;;0.30;0.30;;;19.50;72.00;;;;;;5031154;28;20052;-83
2023/10/23 01:02:21;;;;;;;0.30;0.30;;;19.50;72.10;;;;;;5044964;28;20039;-82
2023/10/23 01:04:47;;;;;;;0.50;0.30;;;19.50;72.00;;;;;;5058575;28;20029;-82
2023/10/23 01:07:12;;;;;;;0.40;0.40;;;19.50;72.00;;;;;;5080658;28;20148;-82
2023/10/23 01:09:38;;;;;;;0.35;0.30;;;19.50;72.00;;;;;;5066465;28;20064;-82
2023/10/23 01:12:04;;;;;;;0.50;0.32;;;19.50;72.00;;;;;;5064726;28;20131;-82
2023/10/23 01:14:30;;;;;;;0.68;0.45;;;19.50;72.00;;;;;;5060561;28;20510;-82
2023/10/23 01:16:55;;;;;;;0.28;0.28;;;19.50;72.10;;;;;;5046443;28;20032;-82
2023/10/23 01:19:21;;;;;;;0.50;0.50;;;19.50;72.10;;;;;;5061915;28;20029;-82
2023/10/23 01:21:47;;;;;;;0.40;0.40;;;19.50;72.10;;;;;;5057965;28;20509;-82
2023/10/23 01:24:12;;;;;;;0.45;0.45;;;19.50;72.10;;;;;;5062639;28;20607;-82
2023/10/23 01:26:38;;;;;;;0.30;0.30;;;19.50;72.00;;;;;;5059073;28;20496;-81
2023/10/23 01:29:03;;;;;;;0.60;0.47;;;19.50;72.00;;;;;;5057969;28;20037;-82
2023/10/23 01:31:29;;;;;;;0.40;0.40;;;19.50;72.00;;;;;;5062553;28;20063;-82
2023/10/23 01:33:55;;;;;;;0.20;0.20;;;19.50;72.00;;;;;;5059547;28;20040;-82
2023/10/23 01:36:20;;;;;;;0.40;0.40;;;19.40;71.90;;;;;;5057682;28;20049;-82
2023/10/23 01:38:46;;;;;;;0.20;0.20;;;19.50;72.00;;;;;;5064830;28;20037;-81
2023/10/23 01:41:11;;;;;;;0.35;0.35;;;19.40;71.90;;;;;;5061304;28;20036;-81
2023/10/23 01:43:37;;;;;;;0.40;0.40;;;19.40;71.90;;;;;;5063841;28;20481;-82
2023/10/23 01:46:03;;;;;;;0.30;0.30;;;19.40;71.90;;;;;;5093590;28;20109;-81
2023/10/23 01:48:28;;;;;;;0.63;0.50;;;19.40;71.90;;;;;;5044738;28;20040;-82
2023/10/23 01:50:54;;;;;;;0.50;0.50;;;19.40;71.90;;;;;;5081182;28;20097;-81
2023/10/23 01:53:19;;;;;;;0.45;0.40;;;19.40;71.90;;;;;;5064605;28;20115;-82
2023/10/23 01:55:45;;;;;;;0.30;0.30;;;19.40;71.90;;;;;;5044967;28;20464;-81
2023/10/23 01:58:10;;;;;;;0.47;0.47;;;19.40;71.90;;;;;;5062727;28;20043;-82
2023/10/23 02:00:36;;;;;;;0.40;0.40;;;19.40;71.90;;;;;;5066262;28;20124;-82
2023/10/23 02:03:02;;;;;;;0.60;0.60;;;19.40;71.90;;;;;;5059251;28;20044;-82
2023/10/23 02:05:27;;;;;;;0.28;0.25;;;19.40;71.90;;;;;;5063549;28;20044;-81
2023/10/23 02:07:53;;;;;;;0.85;0.43;;;19.40;72.80;;;;;;5060410;28;20048;-82
2023/10/23 02:10:19;;;;;;;0.30;0.30;;;19.40;71.90;;;;;;5047294;28;20044;-81
2023/10/23 02:12:44;;;;;;;0.30;0.30;;;19.40;71.90;;;;;;5060561;28;20049;-81
2023/10/23 02:15:10;;;;;;;0.57;0.40;;;19.40;71.90;;;;;;5062121;28;20053;-82
2023/10/23 02:17:37;;;;;;;0.30;0.30;;;19.40;71.90;;;;;;5063569;28;20387;-81
2023/10/23 02:20:05;;;;;;;0.50;0.50;;;19.40;71.90;;;;;;5073093;28;20103;-82
2023/10/23 02:22:31;;;;;;;0.28;0.28;;;19.30;71.80;;;;;;5059319;28;20124;-81
2023/10/23 02:24:56;;;;;;;0.28;0.22;;;19.40;71.90;;;;;;5063516;28;20131;-81
2023/10/23 02:27:22;;;;;;;0.25;0.25;;;19.40;72.70;;;;;;5061452;28;24595;-81
2023/10/23 02:29:47;;;;;;;0.40;0.40;;;19.30;71.80;;;;;;5065496;28;20083;-81
2023/10/23 02:32:14;;;;;;;0.40;0.40;;;19.30;71.70;;;;;;5064624;28;20048;-81
2023/10/23 02:34:40;;;;;;;2.10;0.60;;;19.30;71.80;;;;;;5063349;28;20106;-82
2023/10/23 02:37:05;;;;;;;0.30;0.30;;;19.30;71.80;;;;;;5065047;28;20045;-82
2023/10/23 02:39:31;;;;;;;0.40;0.40;;;19.30;71.80;;;;;;5063491;28;20048;-81
2023/10/23 02:41:57;;;;;;;0.20;0.20;;;19.30;71.80;;;;;;5066347;28;20168;-81
2023/10/23 02:44:22;;;;;;;0.30;0.28;;;19.40;71.90;;;;;;5065171;28;20136;-82
2023/10/23 02:46:48;;;;;;;0.30;0.30;;;19.30;71.70;;;;;;5064276;28;20124;-81
2023/10/23 02:49:13;;;;;;;0.35;0.35;;;19.30;71.70;;;;;;5062997;28;20040;-82
2023/10/23 02:51:39;;;;;;;0.32;0.32;;;19.40;71.80;;;;;;5063420;28;20520;-82
2023/10/23 02:54:04;;;;;;;0.57;0.50;;;19.30;71.80;;;;;;5065205;28;20040;-82
2023/10/23 02:56:32;;;;;;;1.40;0.70;;;19.30;71.70;;;;;;5068348;28;20044;-82
2023/10/23 02:58:57;;;;;;;0.40;0.40;;;19.30;71.80;;;;;;5061934;28;20032;-81
2023/10/23 03:01:23;;;;;;;0.30;0.30;;;19.30;71.80;;;;;;5058126;28;20044;-82
2023/10/23 03:03:49;;;;;;;0.28;0.28;;;19.30;71.80;;;;;;5063604;28;20068;-81
2023/10/23 03:06:15;;;;;;;0.90;0.40;;;19.30;71.80;;;;;;5090388;28;20049;-82
2023/10/23 03:08:41;;;;;;;0.40;0.40;;;19.30;71.70;;;;;;5065995;28;20037;-81
2023/10/23 03:11:06;;;;;;;0.40;0.38;;;19.30;71.70;;;;;;5061128;28;20425;-81
2023/10/23 03:13:32;;;;;;;0.50;0.50;;;19.30;71.70;;;;;;5064392;28;20101;-81
2023/10/23 03:15:58;;;;;;;0.20;0.20;;;19.30;71.70;;;;;;5061927;28;20059;-81
2023/10/23 03:18:23;;;;;;;0.30;0.30;;;19.30;71.70;;;;;;5063804;28;20494;-82
2023/10/23 03:20:49;;;;;;;0.55;0.55;;;19.30;71.70;;;;;;5065649;28;20110;-81
2023/10/23 03:23:14;;;;;;;0.35;0.35;;;19.30;71.70;;;;;;5064290;28;20036;-82
2023/10/23 03:25:42;;;;;;;0.30;0.25;;;19.30;71.70;;;;;;5062859;28;20085;-82
2023/10/23 03:28:08;;;;;;;0.30;0.30;;;19.30;71.70;;;;;;5060399;28;20460;-81
2023/10/23 03:30:33;;;;;;;0.35;0.35;;;19.30;71.70;;;;;;5065754;28;20060;-82
2023/10/23 03:32:59;;;;;;;0.40;0.40;;;19.30;71.70;;;;;;5062808;28;20035;-81
2023/10/23 03:35:25;;;;;;;0.47;0.40;;;19.30;71.70;;;;;;5025833;28;20115;-82
2023/10/23 03:37:50;;;;;;;0.65;0.40;;;19.30;71.70;;;;;;5059707;28;20419;-81
2023/10/23 03:40:16;;;;;;;0.40;0.32;;;19.30;71.70;;;;;;5058947;28;20044;-82
2023/10/23 03:42:41;;;;;;;0.17;0.17;;;19.30;71.70;;;;;;5063848;28;20128;-82
2023/10/23 03:45:07;;;;;;;0.35;0.35;;;19.30;72.50;;;;;;5064122;28;20048;-82
2023/10/23 03:47:33;;;;;;;0.32;0.20;;;19.30;71.70;;;;;;5061754;28;20075;-82
2023/10/23 03:49:58;;;;;;;0.50;0.50;;;19.30;71.60;;;;;;5058987;28;20537;-82
2023/10/23 03:52:24;;;;;;;0.63;0.50;;;19.30;71.70;;;;;;5045809;28;20053;-82
2023/10/23 03:54:49;;;;;;;0.28;0.28;;;19.30;71.60;;;;;;5096005;28;20051;-81
2023/10/23 03:57:15;;;;;;;0.40;0.40;;;19.30;71.60;;;;;;5064877;28;20040;-82
2023/10/23 03:59:43;;;;;;;0.30;0.30;;;19.30;71.60;;;;;;5060343;28;20064;-82
2023/10/23 04:02:09;;;;;;;0.20;0.20;;;19.30;71.60;;;;;;5061620;28;20127;-82
2023/10/23 04:04:35;;;;;;;0.30;0.28;;;19.30;71.50;;;;;;5064883;28;20443;-82
2023/10/23 04:07:00;;;;;;;0.30;0.30;;;19.20;71.50;;;;;;5041794;28;20036;-83
2023/10/23 04:09:29;;;;;;;0.20;0.20;;;19.20;72.30;;;;;;5060754;28;20060;-82
2023/10/23 04:11:55;;;;;;;0.75;0.30;;;19.20;72.30;;;;;;5063993;28;20068;-81
2023/10/23 04:14:21;;;;;;;0.40;0.40;;;19.20;71.50;;;;;;5079234;28;20549;-82
2023/10/23 04:16:46;;;;;;;0.35;0.30;;;19.20;71.50;;;;;;5063203;28;20084;-82
2023/10/23 04:19:12;;;;;;;0.30;0.20;;;19.20;71.50;;;;;;5059083;28;20044;-81
2023/10/23 04:21:39;;;;;;;0.20;0.20;;;19.20;71.50;;;;;;5086952;28;20087;-81
2023/10/23 04:24:09;;;;;;;0.30;0.30;;;19.20;71.50;;;;;;5063086;28;20040;-81
2023/10/23 04:26:35;;;;;;;0.22;0.22;;;19.20;71.50;;;;;;5065316;28;20048;-81
2023/10/23 04:29:00;;;;;;;0.22;0.20;;;19.20;72.30;;;;;;5061240;28;20039;-81
2023/10/23 04:31:26;;;;;;;0.30;0.30;;;19.20;71.50;;;;;;5062180;28;20059;-81
2023/10/23 04:33:51;;;;;;;0.30;0.30;;;19.20;71.40;;;;;;5062074;28;20075;-81
2023/10/23 04:36:17;;;;;;;0.35;0.30;;;19.30;72.20;;;;;;5060456;28;20493;-81
2023/10/23 04:38:43;;;;;;;0.28;0.28;;;19.20;71.40;;;;;;5063526;28;20048;-82
2023/10/23 04:41:08;;;;;;;0.30;0.20;;;19.20;71.40;;;;;;5060331;28;20036;-82
2023/10/23 04:43:35;;;;;;;0.40;0.40;;;19.20;71.40;;;;;;5094381;28;20528;-81
2023/10/23 04:46:01;;;;;;;0.20;0.20;;;19.20;71.40;;;;;;5059614;28;22192;-81
2023/10/23 04:48:26;;;;;;;0.32;0.32;;;19.20;71.40;;;;;;5054192;28;20766;-82
2023/10/23 04:50:55;;;;;;;0.38;0.30;;;19.20;71.40;;;;;;5061332;28;20530;-81
2023/10/23 04:53:20;;;;;;;0.30;0.30;;;19.20;71.40;;;;;;5062785;28;20063;-82
2023/10/23 04:55:46;;;;;;;0.25;0.20;;;19.20;71.40;;;;;;5060044;28;20494;-82
2023/10/23 04:58:11;;;;;;;0.30;0.30;;;19.20;71.40;;;;;;5058345;28;20044;-81
2023/10/23 05:00:38;;;;;;;0.32;0.20;;;19.20;71.40;;;;;;5056576;28;20048;-82
2023/10/23 05:03:04;;;;;;;0.45;0.43;;;19.20;71.40;;;;;;5063971;28;20040;-81
2023/10/23 05:05:30;;;;;;;0.30;0.30;;;19.20;71.40;;;;;;5061650;28;20036;-81
2023/10/23 05:07:56;;;;;;;1.65;0.30;;;19.20;71.50;;;;;;5058767;28;20678;-84
2023/10/23 05:10:21;;;;;;;0.30;0.30;;;19.20;71.60;;;;;;5092583;28;20067;-79
2023/10/23 05:12:49;;;;;;;0.40;0.40;;;19.20;71.70;;;;;;5061446;28;20052;-80
2023/10/23 05:15:15;;;;;;;0.20;0.20;;;19.30;72.30;;;;;;5028651;28;20047;-79
2023/10/23 05:17:41;;;;;;;0.30;0.30;;;19.30;71.20;;;;;;5048733;28;20052;-78
2023/10/23 05:20:07;;;;;;;0.22;0.20;;;19.30;71.70;;;;;;5061760;28;20044;-78
2023/10/23 05:22:33;;;;;;;0.60;0.32;;;19.30;71.70;;;;;;5065720;28;20049;-79
2023/10/23 05:24:59;;;;;;;0.47;0.38;;;19.30;71.70;;;;;;5061372;28;20044;-77
2023/10/23 05:27:24;;;;;;;0.30;0.30;;;19.20;71.70;;;;;;5061617;28;20044;-79
2023/10/23 05:29:50;;;;;;;0.38;0.38;;;19.20;71.60;;;;;;5063135;28;20066;-80
2023/10/23 05:32:16;;;;;;;0.28;0.25;;;19.20;71.90;;;;;;5059077;28;20093;-79
2023/10/23 05:34:44;;;;;;;0.30;0.30;;;19.20;71.90;;;;;;5058059;28;20119;-81
2023/10/23 05:37:10;;;;;;;0.32;0.20;;;19.20;71.90;;;;;;5046164;28;20037;-81
2023/10/23 05:39:35;;;;;;;0.22;0.20;;;19.20;71.90;;;;;;5061682;28;20037;-81
2023/10/23 05:42:01;;;;;;;0.20;0.20;;;19.20;71.60;;;;;;5059122;28;20098;-82
2023/10/23 05:44:27;;;;;;;0.68;0.25;;;19.20;71.80;;;;;;5060842;28;20056;-81
2023/10/23 05:46:53;;;;;;;0.40;0.40;;;19.20;71.80;;;;;;5057253;28;20116;-84
2023/10/23 05:49:19;;;;;;;1.05;0.30;;;19.20;71.70;;;;;;5054754;28;20045;-84
2023/10/23 05:51:44;;;;;;;0.40;0.40;;;19.20;71.40;;;;;;5055052;28;20041;-81
2023/10/23 05:54:10;;;;;;;0.28;0.20;;;19.30;71.40;;;;;;5076027;28;20051;-81
2023/10/23 05:56:36;;;;;;;0.63;0.22;;;19.30;71.40;;;;;;5038342;28;20470;-82
2023/10/23 05:59:02;;;;;;;0.30;0.20;;;19.30;71.70;;;;;;5040869;28;20700;-83
2023/10/23 06:01:27;;;;;;;0.10;0.10;;;19.30;71.70;;;;;;5060340;28;20036;-81
2023/10/23 06:03:53;;;;;;;0.30;0.30;;;19.30;71.50;;;;;;5068271;28;20047;-80
2023/10/23 06:06:19;;;;;;;0.20;0.20;;;19.20;71.40;;;;;;5065284;28;20395;-81
2023/10/23 06:08:44;;;;;;;0.28;0.20;;;19.20;71.60;;;;;;5068111;28;20039;-80
2023/10/23 06:11:10;;;;;;;0.50;0.50;;;19.20;71.90;;;;;;5059409;28;20041;-82
2023/10/23 06:13:36;;;;;;;0.47;0.30;;;19.20;71.70;;;;;;5060903;28;20092;-82
2023/10/23 06:16:04;;;;;;;0.30;0.30;;;19.20;71.50;;;;;;5060238;28;20052;-82
2023/10/23 06:18:33;;;;;;;0.55;0.40;;;19.20;71.30;;;;;;5063475;28;20117;-83
2023/10/23 06:21:05;;;;;;;0.20;0.20;;;19.20;71.50;;;;;;5060575;28;20079;-84
2023/10/23 06:23:35;;;;;;;0.30;0.30;;;19.20;71.40;;;;;;5068281;28;20047;-80
2023/10/23 06:26:01;;;;;;;0.20;0.20;;;19.20;71.60;;;;;;5063390;28;20044;-79
2023/10/23 06:28:26;;;;;;;0.50;0.40;;;19.20;71.80;;;;;;5064442;28;20040;-79
2023/10/23 06:30:52;;;;;;;0.30;0.30;;;19.20;71.60;;;;;;5064616;28;20577;-81
2023/10/23 06:33:18;;;;;;;0.40;0.40;;;19.20;71.90;;;;;;5057060;28;20040;-80
2023/10/23 06:35:43;;;;;;;0.75;0.40;;;19.20;71.80;;;;;;5037565;28;20046;-81
2023/10/23 06:38:09;;;;;;;0.35;0.20;;;19.20;72.00;;;;;;5058429;28;22511;-81
2023/10/23 06:40:34;;;;;;;0.80;0.30;;;19.30;72.60;;;;;;5091709;28;20060;-80
2023/10/23 06:43:00;;;;;;;0.30;0.30;;;19.30;72.30;;;;;;5064179;28;20045;-81
2023/10/23 06:45:25;;;;;;;2.08;0.32;;;19.30;72.50;;;;;;5046043;28;20045;-79
2023/10/23 06:47:51;;;;;;;0.80;0.40;;;19.20;72.30;;;;;;5070858;28;20040;-79
2023/10/23 06:50:17;;;;;;;1.25;0.55;;;19.20;73.30;;;;;;5061160;28;21197;-78
2023/10/23 06:52:46;;;;;;;4.13;0.30;;;19.30;73.00;;;;;;5047919;28;20052;-79
2023/10/23 06:55:12;;;;;;;0.80;0.50;;;19.30;72.80;;;;;;5058167;28;20049;-78
2023/10/23 06:57:37;;;;;;;1.80;0.25;;;19.30;74.00;;;;;;5059072;28;20044;-79
2023/10/23 07:00:03;;;;;;;1.70;0.68;;;19.30;73.60;;;;;;4705573;28;9999750;-79
2023/10/23 07:02:29;;;;;;;0.98;0.60;;;19.30;72.20;;;;;;5038084;28;20060;-78
2023/10/23 07:04:54;;;;;;;3.90;0.40;;;19.20;72.40;;;;;;5030381;28;20403;-79
2023/10/23 07:07:20;;;;;;;1.73;0.57;;;19.20;73.10;;;;;;5041254;28;20063;-79
2023/10/23 07:09:46;;;;;;;0.50;0.32;;;19.20;73.10;;;;;;5041681;28;20040;-78
2023/10/23 07:12:12;;;;;;;0.57;0.40;;;19.20;72.60;;;;;;5057985;28;20044;-78
2023/10/23 07:14:38;;;;;;;0.70;0.40;;;19.20;73.30;;;;;;5056532;28;20049;-78
2023/10/23 07:17:03;;;;;;;2.35;0.50;;;19.20;72.10;;;;;;5055819;28;20040;-78
2023/10/23 07:19:29;;;;;;;2.10;0.35;;;19.20;72.20;;;;;;5059266;28;20584;-78
2023/10/23 07:21:54;;;;;;;1.60;0.40;;;19.20;72.20;;;;;;5061549;28;20040;-78
2023/10/23 07:24:20;;;;;;;0.52;0.50;;;19.20;72.20;;;;;;5057317;28;20415;-78
2023/10/23 07:26:45;;;;;;;1.27;0.47;;;19.20;71.90;;;;;;5063405;28;20119;-78
2023/10/23 07:29:11;;;;;;;0.68;0.50;;;19.20;71.90;;;;;;5042475;28;20067;-78
2023/10/23 07:31:37;;;;;;;0.85;0.60;;;19.20;72.40;;;;;;5053378;28;20392;-77
2023/10/23 07:34:03;;;;;;;0.57;0.50;;;19.10;72.30;;;;;;5057076;28;20121;-77
2023/10/23 07:36:29;;;;;;;0.63;0.47;;;19.20;72.20;;;;;;5058439;28;20067;-77
2023/10/23 07:38:54;;;;;;;0.43;0.30;;;19.20;71.90;;;;;;5062194;28;20123;-77
2023/10/23 07:41:20;;;;;;;0.73;0.30;;;19.20;71.80;;;;;;5044279;28;20056;-77
2023/10/23 07:43:46;;;;;;;1.13;0.50;;;19.20;71.90;;;;;;5062110;28;20044;-78
2023/10/23 07:46:11;;;;;;;1.30;0.60;;;19.20;71.90;;;;;;5055429;28;20683;-78
2023/10/23 07:48:37;;;;;;;0.65;0.40;;;19.20;71.90;;;;;;5056979;28;20051;-79
2023/10/23 07:51:06;;;;;;;0.65;0.50;;;19.20;71.80;;;;;;5040177;28;20045;-79
2023/10/23 07:53:38;;;;;;;0.70;0.30;;;19.20;71.90;;;;;;5085373;28;20129;-77
2023/10/23 07:56:04;;;;;;;0.93;0.60;;;19.20;71.80;;;;;;5057809;28;20033;-77
2023/10/23 07:58:30;;;;;;;1.27;0.40;;;19.20;71.60;;;;;;5059835;28;20063;-77
2023/10/23 08:01:05;;;;;;;1.13;0.57;;;19.20;71.80;;;;;;5055882;28;20033;-77
2023/10/23 08:03:31;;;;;;;0.40;0.40;;;19.20;71.50;;;;;;5048590;28;20040;-78
2023/10/23 08:06:00;;;;;;;0.50;0.40;;;19.20;71.50;;;;;;5062313;28;20024;-78
2023/10/23 08:08:26;;;;;;;0.50;0.50;;;19.20;71.60;;;;;;5058429;28;20044;-78
2023/10/23 08:10:52;;;;;;;0.40;0.40;;;19.20;71.50;;;;;;5042276;28;20044;-78
2023/10/23 08:13:17;;;;;;;1.15;0.60;;;19.20;71.60;;;;;;5061561;28;20056;-77
2023/10/23 08:15:43;;;;;;;0.68;0.65;;;19.20;71.60;;;;;;5062024;28;20044;-77
2023/10/23 08:18:09;;;;;;;2.85;0.60;;;19.20;71.50;;;;;;5063975;28;20033;-76
2023/10/23 08:20:35;;;;;;;0.63;0.63;;;19.20;71.50;;;;;;5059642;28;21444;-76
2023/10/23 08:23:00;;;;;;;0.70;0.63;;;19.20;71.50;;;;;;5059780;28;20033;-77
2023/10/23 08:25:26;;;;;;;1.40;0.70;;;19.20;71.50;;;;;;5062821;28;20513;-77
2023/10/23 08:27:51;;;;;;;0.50;0.50;;;19.20;71.50;;;;;;5061632;28;20055;-78
2023/10/23 08:30:17;;;;;;;0.50;0.50;;;19.20;71.60;;;;;;5060054;28;20049;-78
2023/10/23 08:32:43;;;;;;;0.47;0.47;;;19.20;71.50;;;;;;5078624;28;20029;-77
2023/10/23 08:35:09;;;;;;;0.60;0.52;;;19.20;71.50;;;;;;5042689;28;20032;-77
2023/10/23 08:37:34;;;;;;;0.57;0.35;;;19.20;71.50;;;;;;5042090;28;20382;-77
2023/10/23 08:40:00;;;;;;;0.30;0.30;;;19.20;71.50;;;;;;5060821;28;20044;-77
2023/10/23 08:42:27;;;;;;;0.82;0.40;;;19.20;71.40;;;;;;5060086;28;20066;-76
2023/10/23 08:44:52;;;;;;;0.47;0.40;;;19.20;71.60;;;;;;5067080;28;20040;-77
2023/10/23 08:47:18;;;;;;;0.30;0.30;;;19.20;71.50;;;;;;5043963;28;20147;-76
2023/10/23 08:49:44;;;;;;;1.55;0.40;;;19.20;71.50;;;;;;4709360;28;10000402;-77
2023/10/23 08:52:10;;;;;;;0.73;0.20;;;19.20;71.50;;;;;;5043058;28;20045;-77
2023/10/23 08:54:35;;;;;;;0.80;0.55;;;19.20;72.10;;;;;;5055919;28;20045;-77
2023/10/23 08:57:02;;;;;;;0.30;0.30;;;19.20;71.20;;;;;;5072679;28;20556;-76
2023/10/23 08:59:28;;;;;;;0.70;0.50;;;19.20;71.30;;;;;;5075392;28;20052;-77
2023/10/23 09:01:54;;;;;;;0.60;0.60;;;19.20;70.90;;;;;;5072042;28;20028;-77
2023/10/23 09:04:19;;;;;;;0.35;0.20;;;19.20;71.40;;;;;;5055568;28;20047;-77
2023/10/23 09:06:46;;;;;;;0.52;0.47;;;19.20;71.10;;;;;;5043385;28;20048;-77
2023/10/23 09:09:12;;;;;;;1.25;0.88;;;19.20;70.90;;;;;;5055770;28;20509;-76
2023/10/23 09:11:43;;;;;;;0.82;0.43;;;19.20;70.90;;;;;;5084828;28;20055;-77
2023/10/23 09:14:10;;;;;;;0.40;0.35;;;19.30;71.30;;;;;;5053256;28;20113;-77
2023/10/23 09:16:36;;;;;;;0.60;0.40;;;19.30;71.00;;;;;;5056133;28;20105;-76
2023/10/23 09:19:02;;;;;;;0.55;0.55;;;19.20;71.10;;;;;;5057010;28;20039;-76
2023/10/23 09:21:29;;;;;;;0.47;0.43;;;19.30;71.00;;;;;;5056482;28;20044;-77
2023/10/23 09:24:00;;;;;;;0.30;0.30;;;19.30;70.90;;;;;;5056986;28;20048;-76
2023/10/23 09:26:26;;;;;;;0.50;0.50;;;19.30;71.70;;;;;;5089016;28;20049;-77
2023/10/23 09:28:52;;;;;;;0.43;0.35;;;19.30;70.90;;;;;;5041539;28;20045;-77
2023/10/23 09:31:18;;;;;;;0.90;0.50;;;19.30;71.10;;;;;;5057292;28;20052;-76
2023/10/23 09:33:45;;;;;;;0.40;0.40;;;19.30;70.90;;;;;;5053249;28;20044;-77
2023/10/23 09:36:10;;;;;;;0.30;0.30;;;19.30;70.90;;;;;;5061029;28;20052;-78
2023/10/23 09:38:39;;;;;;;0.45;0.45;;;19.30;70.70;;;;;;5094162;28;20048;-77
2023/10/23 09:41:11;;;;;;;0.73;0.57;;;19.30;71.00;;;;;;5061020;28;20040;-78
2023/10/23 09:43:45;;;;;;;0.70;0.60;;;19.30;71.00;;;;;;5059756;28;20064;-77
2023/10/23 09:46:11;;;;;;;0.68;0.40;;;19.30;70.80;;;;;;5063466;28;20086;-77
2023/10/23 09:48:38;;;;;;;0.63;0.45;;;19.30;70.90;;;;;;5062267;28;20063;-77
2023/10/23 09:51:04;;;;;;;0.35;0.35;;;19.30;71.00;;;;;;5094785;28;20044;-77
2023/10/23 09:53:29;;;;;;;0.40;0.40;;;19.30;70.90;;;;;;5076160;28;20557;-77
2023/10/23 09:55:55;;;;;;;0.50;0.50;;;19.30;70.90;;;;;;5060807;28;20044;-78
2023/10/23 09:58:20;;;;;;;0.40;0.40;;;19.30;70.90;;;;;;5075626;28;20032;-77
2023/10/23 10:00:47;;;;;;;0.50;0.40;;;19.30;70.80;;;;;;5059979;28;20906;-76
2023/10/23 10:03:13;;;;;;;1.77;0.35;;;19.30;70.90;;;;;;5041403;28;20041;-77
2023/10/23 10:05:56;;;;;;;0.30;0.30;;;19.30;70.90;;;;;;5092153;28;20052;-77
2023/10/23 10:08:22;;;;;;;0.30;0.30;;;19.30;70.60;;;;;;5088725;28;20390;-77
2023/10/23 10:10:48;;;;;;;1.50;0.63;;;19.30;70.60;;;;;;5063610;28;20525;-76
2023/10/23 10:13:15;;;;;;;0.40;0.40;;;19.30;70.40;;;;;;5063351;28;20585;-77
2023/10/23 10:15:40;;;;;;;0.80;0.52;;;19.30;70.70;;;;;;5063256;28;20052;-77
2023/10/23 10:18:06;;;;;;;1.58;0.43;;;19.30;71.10;;;;;;5080331;28;20040;-77
2023/10/23 10:20:31;;;;;;;0.68;0.50;;;19.30;70.80;;;;;;5065694;28;20091;-77
2023/10/23 10:23:09;;;;;;;0.50;0.50;;;19.30;70.70;;;;;;5065357;28;20040;-77
2023/10/23 10:25:35;;;;;;;0.50;0.50;;;19.30;70.70;;;;;;5049945;28;20074;-77
2023/10/23 10:28:05;;;;;;;0.70;0.32;;;19.30;70.60;;;;;;5047759;28;20409;-77
2023/10/23 10:30:36;;;;;;;0.50;0.40;;;19.30;70.40;;;;;;5078331;28;20528;-77
2023/10/23 10:33:02;;;;;;;0.57;0.57;;;19.30;70.60;;;;;;5066211;28;20045;-77
2023/10/23 10:35:28;;;;;;;0.60;0.60;;;19.30;70.60;;;;;;5064780;28;20051;-77
2023/10/23 10:37:59;;;;;;;0.43;0.40;;;19.30;70.60;;;;;;5063065;28;20132;-76
2023/10/23 10:40:24;;;;;;;0.50;0.45;;;19.30;70.60;;;;;;5060908;28;20040;-77
2023/10/23 10:42:50;;;;;;;0.47;0.47;;;19.30;70.50;;;;;;5066870;28;20502;-77
2023/10/23 10:45:17;;;;;;;0.63;0.57;;;19.30;71.30;;;;;;5065517;28;20048;-77
2023/10/23 10:47:52;;;;;;;0.40;0.30;;;19.30;70.60;;;;;;5065496;28;20045;-77
2023/10/23 10:50:34;;;;;;;1.25;0.70;;;19.30;70.60;;;;;;5065533;28;20064;-77
2023/10/23 10:53:04;;;;;;;0.40;0.40;;;19.20;71.30;;;;;;5063780;28;20040;-77
2023/10/23 10:55:29;;;;;;;0.50;0.50;;;19.30;70.60;;;;;;5046966;28;20144;-77
2023/10/23 10:57:55;;;;;;;0.80;0.80;;;19.20;70.50;;;;;;5064750;28;20116;-77
2023/10/23 11:00:22;;;;;;;0.63;0.40;;;19.20;71.20;;;;;;5063365;28;20040;-77
2023/10/23 11:02:48;;;;;;;0.52;0.50;;;19.20;70.40;;;;;;5067998;28;20041;-77
2023/10/23 11:05:14;;;;;;;0.40;0.40;;;19.30;70.40;;;;;;5063785;28;20067;-77
2023/10/23 11:07:39;;;;;;;0.30;0.30;;;19.30;70.50;;;;;;5064276;28;20052;-77
2023/10/23 11:10:05;;;;;;;0.50;0.50;;;19.30;70.50;;;;;;5063594;28;20524;-77
2023/10/23 11:12:31;;;;;;;0.40;0.40;;;19.20;70.40;;;;;;5064008;28;20056;-77
2023/10/23 11:14:57;;;;;;;0.57;0.55;;;19.30;70.50;;;;;;5093017;28;20565;-77
2023/10/23 11:17:23;;;;;;;0.40;0.40;;;19.20;70.40;;;;;;5061743;28;20555;-76
2023/10/23 11:19:48;;;;;;;0.60;0.60;;;19.30;70.40;;;;;;5064195;28;20116;-77
2023/10/23 11:22:15;;;;;;;0.40;0.40;;;19.20;70.40;;;;;;5064830;28;20087;-77
2023/10/23 11:24:41;;;;;;;0.60;0.50;;;19.20;70.30;;;;;;5065185;28;20045;-77
2023/10/23 11:27:09;;;;;;;0.65;0.65;;;19.20;70.40;;;;;;5065966;28;20049;-76
2023/10/23 11:29:39;;;;;;;0.40;0.40;;;19.20;70.30;;;;;;5064991;28;20076;-77
2023/10/23 11:32:08;;;;;;;0.60;0.45;;;19.20;70.30;;;;;;5065179;28;20040;-76
2023/10/23 11:34:39;;;;;;;0.98;0.38;;;19.20;70.30;;;;;;5061921;28;20040;-77
2023/10/23 11:37:06;;;;;;;0.43;0.43;;;19.20;70.30;;;;;;5061293;28;20041;-76
2023/10/23 11:39:32;;;;;;;0.63;0.60;;;19.20;70.30;;;;;;5058259;28;20047;-76
2023/10/23 11:41:58;;;;;;;0.60;0.60;;;19.20;70.20;;;;;;5057720;28;20426;-76
2023/10/23 11:44:27;;;;;;;2.67;0.70;;;19.20;70.60;;;;;;5047657;28;20052;-76
2023/10/23 11:46:57;;;;;;;0.93;0.55;;;19.20;70.40;;;;;;5063507;28;20148;-77
2023/10/23 11:49:22;;;;;;;0.55;0.50;;;19.20;70.30;;;;;;5041933;28;20041;-78
2023/10/23 11:51:49;;;;;;;0.55;0.55;;;19.30;71.30;;;;;;5058294;28;20044;-79
2023/10/23 11:54:15;;;;;;;0.50;0.50;;;19.30;70.00;;;;;;5072677;28;20059;-79
2023/10/23 11:56:44;;;;;;;1.05;0.52;;;19.30;70.10;;;;;;5078540;28;20586;-79
2023/10/23 11:59:20;;;;;;;0.40;0.40;;;19.30;70.20;;;;;;5056841;28;20145;-77
2023/10/23 12:01:45;;;;;;;0.43;0.43;;;19.30;70.30;;;;;;5058751;28;20036;-76
2023/10/23 12:04:11;;;;;;;0.50;0.50;;;19.30;70.60;;;;;;5061767;28;20048;-79
2023/10/23 12:06:37;;;;;;;0.50;0.50;;;19.40;71.30;;;;;;5062531;28;20060;-77
2023/10/23 12:09:04;;;;;;;0.43;0.43;;;19.40;70.30;;;;;;5062083;28;20036;-78
2023/10/23 12:11:29;;;;;;;0.57;0.57;;;19.40;70.40;;;;;;5063898;28;20418;-78
2023/10/23 12:13:57;;;;;;;0.75;0.75;;;19.40;70.20;;;;;;5063274;28;20045;-77
2023/10/23 12:16:22;;;;;;;1.60;0.85;;;19.40;70.60;;;;;;5059539;28;20044;-77
2023/10/23 12:18:48;;;;;;;1.35;0.50;;;19.40;70.80;;;;;;5063726;28;20444;-77
2023/10/23 12:21:14;;;;;;;0.88;0.60;;;19.40;70.80;;;;;;5063611;28;20044;-77
2023/10/23 12:23:40;;;;;;;1.10;0.85;;;19.40;71.10;;;;;;5056015;28;20106;-77
2023/10/23 12:26:06;;;;;;;0.65;0.60;;;19.40;70.80;;;;;;5063386;28;20044;-77
2023/10/23 12:28:31;;;;;;;1.25;0.88;;;19.40;70.80;;;;;;5063785;28;20053;-77
2023/10/23 12:30:58;;;;;;;0.95;0.80;;;19.40;70.90;;;;;;5062884;28;20036;-77
2023/10/23 12:33:24;;;;;;;0.52;0.52;;;19.40;71.50;;;;;;5039694;28;20044;-78
2023/10/23 12:35:50;;;;;;;0.50;0.50;;;19.40;70.70;;;;;;5063042;28;20114;-77
2023/10/23 12:38:15;;;;;;;0.60;0.60;;;19.40;70.40;;;;;;5061293;28;20125;-77
2023/10/23 12:40:43;;;;;;;0.60;0.55;;;19.40;70.30;;;;;;5059406;28;20463;-78